createdAt,value
2022-10-22T00:00:09.105Z,91.69
2022-10-22T00:02:36.187Z,91.41
2022-10-22T00:05:04.151Z,91.70
2022-10-22T00:07:31.573Z,91.36
2022-10-22T00:09:58.545Z,92.05
2022-10-22T00:12:25.770Z,91.83
2022-10-22T00:14:53.035Z,91.99
2022-10-22T00:17:20.063Z,92.21
2022-10-22T00:19:46.953Z,91.80
2022-10-22T00:22:13.983Z,92.06
2022-10-22T00:24:41.149Z,91.89
2022-10-22T00:27:10.214Z,91.82
2022-10-22T00:29:37.146Z,91.87
2022-10-22T00:32:04.916Z,91.67
2022-10-22T00:34:32.331Z,91.17
2022-10-22T00:36:59.531Z,91.04
2022-10-22T00:39:27.366Z,91.49
2022-10-22T00:41:56.064Z,91.24
2022-10-22T00:45:00.562Z,91.19
2022-10-22T00:47:39.651Z,91.50
2022-10-22T00:50:15.884Z,90.89
2022-10-22T00:52:43.313Z,91.50
2022-10-22T00:55:11.631Z,91.54
2022-10-22T00:57:39.154Z,91.90
2022-10-22T01:00:07.061Z,91.82
2022-10-22T01:02:34.369Z,91.80
2022-10-22T01:05:01.271Z,91.96
2022-10-22T01:07:28.583Z,91.70
2022-10-22T01:10:18.518Z,92.14
2022-10-22T01:12:52.429Z,91.54
2022-10-22T01:15:35.233Z,91.65
2022-10-22T01:18:31.950Z,91.29
2022-10-22T01:21:10.751Z,91.98
2022-10-22T01:24:13.485Z,91.35
2022-10-22T01:26:50.611Z,91.18
2022-10-22T01:29:22.200Z,91.04
2022-10-22T01:32:02.809Z,90.93
2022-10-22T01:34:31.310Z,91.32
2022-10-22T01:37:00.504Z,90.87
2022-10-22T01:39:29.845Z,90.87
2022-10-22T01:41:57.762Z,91.14
2022-10-22T01:44:32.331Z,91.07
2022-10-22T01:47:05.738Z,91.30
2022-10-22T01:50:00.339Z,91.46
2022-10-22T01:52:46.060Z,91.23
2022-10-22T01:55:37.967Z,91.07
2022-10-22T01:58:32.900Z,91.38
2022-10-22T02:01:08.905Z,91.36
2022-10-22T02:03:44.975Z,91.94
2022-10-22T02:06:19.459Z,91.54
2022-10-22T02:08:48.901Z,91.92
2022-10-22T02:11:16.048Z,92.03
2022-10-22T02:13:50.555Z,92.01
2022-10-22T02:16:40.521Z,92.00
2022-10-22T02:19:17.020Z,92.00
2022-10-22T02:21:44.793Z,92.26
2022-10-22T02:24:12.490Z,92.12
2022-10-22T02:26:57.752Z,92.26
2022-10-22T02:29:35.326Z,92.80
2022-10-22T02:32:05.893Z,92.42
2022-10-22T02:34:33.362Z,92.89
2022-10-22T02:37:03.293Z,92.86
2022-10-22T02:39:32.193Z,92.82
2022-10-22T02:42:00.765Z,92.96
2022-10-22T02:44:27.816Z,92.89
2022-10-22T02:46:54.684Z,92.61
2022-10-22T02:49:21.846Z,92.36
2022-10-22T02:51:49.056Z,93.01
2022-10-22T02:54:16.004Z,92.33
2022-10-22T02:56:42.917Z,92.49
2022-10-22T02:59:09.806Z,92.48
2022-10-22T03:01:36.714Z,92.22
2022-10-22T03:04:04.213Z,91.72
2022-10-22T03:06:31.280Z,92.42
2022-10-22T03:08:58.324Z,92.57
2022-10-22T03:11:25.208Z,91.84
2022-10-22T03:13:52.100Z,92.00
2022-10-22T03:16:18.983Z,92.26
2022-10-22T03:18:45.943Z,91.93
2022-10-22T03:21:19.637Z,91.76
2022-10-22T03:23:47.760Z,91.83
2022-10-22T03:26:15.161Z,91.67
2022-10-22T03:28:42.894Z,91.98
2022-10-22T03:31:09.825Z,91.85
2022-10-22T03:33:36.774Z,91.59
2022-10-22T03:36:03.999Z,91.53
2022-10-22T03:38:31.132Z,91.68
2022-10-22T03:40:58.767Z,91.95
2022-10-22T03:43:25.789Z,91.57
2022-10-22T03:45:52.707Z,91.74
2022-10-22T03:48:19.615Z,91.76
2022-10-22T03:50:46.475Z,92.32
2022-10-22T03:53:13.526Z,91.73
2022-10-22T03:55:41.797Z,91.61
2022-10-22T03:58:08.726Z,91.06
2022-10-22T04:00:36.685Z,90.92
2022-10-22T04:03:04.164Z,90.88
2022-10-22T04:05:33.857Z,91.25
2022-10-22T04:08:00.781Z,91.01
2022-10-22T04:10:27.693Z,91.05
2022-10-22T04:12:54.568Z,91.09
2022-10-22T04:15:21.421Z,90.71
2022-10-22T04:17:48.350Z,90.39
2022-10-22T04:20:15.268Z,90.78
2022-10-22T04:22:42.174Z,90.48
2022-10-22T04:25:09.462Z,90.15
2022-10-22T04:27:36.872Z,90.10
2022-10-22T04:30:05.412Z,90.56
2022-10-22T04:32:32.412Z,90.47
2022-10-22T04:34:59.324Z,90.08
2022-10-22T04:37:26.244Z,90.41
2022-10-22T04:39:53.107Z,90.77
2022-10-22T04:42:20.002Z,90.59
2022-10-22T04:44:46.868Z,90.72
2022-10-22T04:47:13.711Z,90.72
2022-10-22T04:49:40.733Z,91.20
2022-10-22T04:52:07.809Z,90.46
2022-10-22T04:54:34.807Z,90.70
2022-10-22T04:57:01.743Z,90.36
2022-10-22T04:59:28.738Z,90.77
2022-10-22T05:01:55.618Z,90.83
2022-10-22T05:04:22.595Z,90.60
2022-10-22T05:06:49.588Z,90.89
2022-10-22T05:09:19.452Z,90.22
2022-10-22T05:11:49.254Z,90.42
2022-10-22T05:14:25.467Z,90.42
2022-10-22T05:16:53.171Z,90.49
2022-10-22T05:19:26.551Z,90.48
2022-10-22T05:21:55.108Z,90.69
2022-10-22T05:24:22.729Z,90.23
2022-10-22T05:26:53.960Z,90.25
2022-10-22T05:29:22.312Z,89.64
2022-10-22T05:31:49.797Z,90.09
2022-10-22T05:34:17.458Z,89.99
2022-10-22T05:36:44.490Z,89.56
2022-10-22T05:39:11.829Z,89.21
2022-10-22T05:41:39.058Z,88.89
2022-10-22T05:44:06.111Z,88.82
2022-10-22T05:46:36.903Z,88.19
2022-10-22T05:49:06.157Z,87.54
2022-10-22T05:51:34.914Z,88.20
2022-10-22T05:54:04.830Z,88.05
2022-10-22T05:56:33.030Z,88.10
2022-10-22T05:59:01.034Z,89.17
2022-10-22T06:01:30.687Z,89.20
2022-10-22T06:04:01.313Z,88.60
2022-10-22T06:06:31.017Z,88.38
2022-10-22T06:09:06.840Z,87.47
2022-10-22T06:11:35.218Z,87.63
2022-10-22T06:14:03.208Z,86.96
2022-10-22T06:16:31.033Z,86.31
2022-10-22T06:19:01.958Z,86.62
2022-10-22T06:21:30.177Z,85.25
2022-10-22T06:24:01.607Z,85.08
2022-10-22T06:26:29.061Z,83.71
2022-10-22T06:28:57.027Z,83.39
2022-10-22T06:31:25.842Z,83.56
2022-10-22T06:33:52.934Z,83.23
2022-10-22T06:36:22.148Z,84.15
2022-10-22T06:38:52.437Z,83.88
2022-10-22T06:41:19.683Z,83.24
2022-10-22T06:43:49.540Z,84.66
2022-10-22T06:46:20.095Z,83.33
2022-10-22T06:48:56.665Z,82.84
2022-10-22T06:51:23.922Z,82.05
2022-10-22T06:53:51.014Z,81.84
2022-10-22T06:56:20.933Z,82.20
2022-10-22T06:58:49.066Z,82.21
2022-10-22T07:01:18.892Z,81.09
2022-10-22T07:03:46.476Z,81.20
2022-10-22T07:06:15.083Z,79.97
2022-10-22T07:08:43.327Z,80.86
2022-10-22T07:11:21.764Z,79.94
2022-10-22T07:13:49.356Z,79.65
2022-10-22T07:16:17.623Z,80.08
2022-10-22T07:18:45.283Z,79.59
2022-10-22T07:21:13.592Z,79.44
2022-10-22T07:23:40.774Z,79.92
2022-10-22T07:26:08.733Z,80.51
2022-10-22T07:28:38.066Z,79.68
2022-10-22T07:31:05.049Z,79.33
2022-10-22T07:33:32.417Z,79.98
2022-10-22T07:36:00.898Z,79.48
2022-10-22T07:38:28.229Z,79.21
2022-10-22T07:40:55.973Z,79.28
2022-10-22T07:43:23.048Z,79.45
2022-10-22T07:45:49.997Z,79.55
2022-10-22T07:48:17.304Z,79.22
2022-10-22T07:53:16.483Z,78.85
2022-10-22T07:55:43.372Z,79.26
2022-10-22T07:58:10.647Z,79.89
2022-10-22T08:00:37.856Z,79.55
2022-10-22T08:03:04.743Z,79.00
2022-10-22T08:05:31.661Z,78.65
2022-10-22T08:07:58.550Z,79.17
2022-10-22T08:10:25.418Z,79.10
2022-10-22T08:12:52.318Z,78.96
2022-10-22T08:15:19.230Z,78.63
2022-10-22T08:17:46.086Z,76.99
2022-10-22T08:20:13.003Z,77.69
2022-10-22T08:22:40.088Z,77.07
2022-10-22T08:25:07.660Z,76.11
2022-10-22T08:27:35.036Z,76.46
2022-10-22T08:30:02.349Z,76.50
2022-10-22T08:32:31.040Z,75.95
2022-10-22T08:34:58.092Z,77.09
2022-10-22T08:37:26.037Z,76.88
2022-10-22T08:39:53.040Z,77.51
2022-10-22T08:42:41.985Z,77.01
2022-10-22T08:45:24.270Z,78.00
2022-10-22T08:48:10.324Z,77.36
2022-10-22T08:50:45.548Z,77.80
2022-10-22T08:53:22.433Z,77.44
2022-10-22T08:55:53.726Z,77.42
2022-10-22T08:58:39.744Z,77.12
2022-10-22T09:01:13.792Z,77.55
2022-10-22T09:03:59.150Z,77.62
2022-10-22T09:06:29.442Z,77.72
2022-10-22T09:08:58.872Z,77.96
2022-10-22T09:11:34.919Z,77.20
2022-10-22T09:14:03.337Z,77.34
2022-10-22T09:16:36.323Z,77.63
2022-10-22T09:19:14.425Z,78.06
2022-10-22T09:22:08.070Z,77.78
2022-10-22T09:25:20.407Z,77.73
2022-10-22T09:27:48.113Z,78.45
2022-10-22T09:30:20.945Z,78.30
2022-10-22T09:32:54.905Z,78.38
2022-10-22T09:35:24.577Z,78.28
2022-10-22T09:37:55.079Z,77.55
2022-10-22T09:40:22.630Z,78.15
2022-10-22T09:42:50.153Z,77.19
2022-10-22T09:45:35.287Z,77.05
2022-10-22T09:48:34.748Z,77.45
2022-10-22T09:51:12.721Z,77.83
2022-10-22T09:53:44.045Z,77.58
2022-10-22T09:56:26.450Z,77.27
2022-10-22T09:58:57.009Z,76.67
2022-10-22T10:01:30.088Z,75.90
2022-10-22T10:04:09.567Z,76.11
2022-10-22T10:06:40.331Z,76.00
2022-10-22T10:09:22.929Z,75.60
2022-10-22T10:11:52.754Z,74.97
2022-10-22T10:14:32.064Z,74.91
2022-10-22T10:17:05.096Z,74.54
2022-10-22T10:19:47.182Z,74.22
2022-10-22T10:22:36.080Z,73.38
2022-10-22T10:25:20.694Z,73.87
2022-10-22T10:27:51.669Z,74.07
2022-10-22T10:30:21.721Z,74.79
2022-10-22T10:32:59.795Z,75.13
2022-10-22T10:36:03.774Z,74.77
2022-10-22T10:38:45.870Z,74.90
2022-10-22T10:41:43.635Z,75.00
2022-10-22T10:44:10.320Z,74.47
2022-10-22T10:46:46.122Z,74.87
2022-10-22T10:49:31.842Z,74.14
2022-10-22T10:52:19.005Z,74.88
2022-10-22T10:55:58.952Z,73.88
2022-10-22T10:58:53.366Z,74.22
2022-10-22T11:01:29.864Z,73.99
2022-10-22T11:04:08.244Z,74.53
2022-10-22T11:06:37.579Z,74.94
2022-10-22T11:09:12.423Z,75.20
2022-10-22T11:11:53.514Z,75.56
2022-10-22T11:14:46.423Z,74.02
2022-10-22T11:17:18.271Z,75.37
2022-10-22T11:20:07.655Z,74.89
2022-10-22T11:22:50.394Z,75.14
2022-10-22T11:25:53.599Z,75.50
2022-10-22T11:28:33.917Z,75.26
2022-10-22T11:31:10.091Z,75.21
2022-10-22T11:33:50.652Z,75.12
2022-10-22T11:36:22.117Z,75.19
2022-10-22T11:38:49.711Z,75.01
2022-10-22T11:41:19.340Z,75.44
2022-10-22T11:43:55.300Z,75.62
2022-10-22T11:46:22.130Z,75.47
2022-10-22T11:49:19.024Z,75.18
2022-10-22T11:51:47.318Z,75.33
2022-10-22T11:54:42.650Z,75.91
2022-10-22T11:57:15.368Z,75.98
2022-10-22T11:59:59.357Z,75.29
2022-10-22T12:02:29.435Z,76.34
2022-10-22T12:05:16.818Z,76.23
2022-10-22T12:07:46.474Z,75.06
2022-10-22T12:10:20.820Z,75.51
2022-10-22T12:12:57.460Z,75.02
2022-10-22T12:15:27.178Z,75.41
2022-10-22T12:18:01.352Z,75.18
2022-10-22T12:20:28.797Z,75.07
2022-10-22T12:22:57.923Z,74.96
2022-10-22T12:25:34.731Z,75.53
2022-10-22T12:28:03.075Z,75.63
2022-10-22T12:30:34.767Z,76.38
2022-10-22T12:33:04.451Z,76.79
2022-10-22T12:35:34.042Z,76.04
2022-10-22T12:38:03.385Z,77.29
2022-10-22T12:40:34.084Z,76.77
2022-10-22T12:43:07.786Z,77.34
2022-10-22T12:45:35.857Z,75.82
2022-10-22T12:48:24.133Z,76.67
2022-10-22T12:50:54.149Z,76.03
2022-10-22T12:53:35.325Z,75.87
2022-10-22T12:56:08.528Z,76.13
2022-10-22T12:58:53.017Z,76.99
2022-10-22T13:01:20.293Z,75.53
2022-10-22T13:04:03.592Z,77.40
2022-10-22T13:06:33.709Z,75.95
2022-10-22T13:09:00.808Z,76.85
2022-10-22T13:11:39.053Z,78.48
2022-10-22T13:14:36.110Z,77.80
2022-10-22T13:17:42.339Z,79.20
2022-10-22T13:20:23.497Z,79.29
2022-10-22T13:22:57.669Z,79.42
2022-10-22T13:25:29.664Z,79.79
2022-10-22T13:28:04.144Z,80.51
2022-10-22T13:30:34.707Z,79.86
2022-10-22T13:33:23.371Z,80.58
2022-10-22T13:35:50.328Z,81.01
2022-10-22T13:38:20.535Z,81.39
2022-10-22T13:40:47.950Z,81.04
2022-10-22T13:43:16.525Z,81.79
2022-10-22T13:45:45.383Z,81.75
2022-10-22T13:48:19.302Z,82.50
2022-10-22T13:50:46.780Z,81.69
2022-10-22T13:53:20.761Z,82.46
2022-10-22T13:55:47.883Z,82.82
2022-10-22T14:00:54.944Z,82.86
2022-10-22T14:03:31.709Z,83.03
2022-10-22T14:05:58.676Z,83.21
2022-10-22T14:08:27.381Z,82.77
2022-10-22T14:10:55.216Z,83.31
2022-10-22T14:13:22.702Z,83.38
2022-10-22T14:15:52.455Z,83.77
2022-10-22T14:18:26.949Z,83.50
2022-10-22T14:21:00.010Z,83.00
2022-10-22T14:23:32.053Z,83.18
2022-10-22T14:26:00.522Z,83.29
2022-10-22T14:28:27.714Z,83.36
2022-10-22T14:30:55.485Z,83.37
2022-10-22T14:33:32.407Z,82.84
2022-10-22T14:36:00.867Z,83.09
2022-10-22T14:38:28.828Z,83.75
2022-10-22T14:40:55.763Z,83.73
2022-10-22T14:43:26.370Z,83.74
2022-10-22T14:45:53.874Z,83.80
2022-10-22T14:48:20.901Z,83.78
2022-10-22T14:50:48.682Z,84.39
2022-10-22T14:53:16.946Z,85.55
2022-10-22T14:55:45.145Z,85.73
2022-10-22T14:58:12.539Z,84.70
2022-10-22T15:00:43.268Z,85.31
2022-10-22T15:03:11.765Z,85.06
2022-10-22T15:05:44.783Z,85.95
2022-10-22T15:08:13.906Z,85.86
2022-10-22T15:10:41.648Z,85.28
2022-10-22T15:13:09.091Z,85.09
2022-10-22T15:15:39.635Z,85.96
2022-10-22T15:18:07.564Z,85.79
2022-10-22T15:20:34.653Z,86.09
2022-10-22T15:23:01.949Z,86.68
2022-10-22T15:25:28.982Z,86.06
2022-10-22T15:28:00.812Z,85.95
2022-10-22T15:30:35.116Z,86.66
2022-10-22T15:33:02.252Z,86.17
2022-10-22T15:35:29.171Z,85.88
2022-10-22T15:37:56.133Z,85.61
2022-10-22T15:40:23.087Z,85.90
2022-10-22T15:42:50.033Z,86.03
2022-10-22T15:45:17.144Z,85.65
2022-10-22T15:47:48.314Z,85.45
2022-10-22T15:50:15.801Z,85.01
2022-10-22T15:52:42.788Z,85.84
2022-10-22T15:55:10.788Z,85.38
2022-10-22T15:57:39.668Z,84.69
2022-10-22T16:00:08.284Z,85.38
2022-10-22T16:02:42.136Z,85.30
2022-10-22T16:05:09.622Z,85.71
2022-10-22T16:07:36.634Z,85.23
2022-10-22T16:10:04.590Z,85.00
2022-10-22T16:12:31.507Z,85.03
2022-10-22T16:14:58.438Z,85.18
2022-10-22T16:17:26.016Z,85.26
2022-10-22T16:19:54.225Z,85.45
2022-10-22T16:22:21.790Z,84.68
2022-10-22T16:24:49.148Z,85.66
2022-10-22T16:27:16.166Z,85.08
2022-10-22T16:29:43.099Z,84.91
2022-10-22T16:32:10.062Z,85.64
2022-10-22T16:34:36.957Z,85.26
2022-10-22T16:37:10.090Z,84.80
2022-10-22T16:39:37.479Z,84.98
2022-10-22T16:42:04.865Z,84.88
2022-10-22T16:44:31.810Z,84.91
2022-10-22T16:46:58.644Z,85.25
2022-10-22T16:49:25.521Z,84.89
2022-10-22T16:51:52.456Z,84.48
2022-10-22T16:54:21.824Z,84.13
2022-10-22T16:56:48.866Z,84.78
2022-10-22T16:59:15.846Z,84.78
2022-10-22T17:01:42.775Z,84.51
2022-10-22T17:04:10.223Z,84.40
2022-10-22T17:06:37.318Z,83.93
2022-10-22T17:09:04.788Z,83.80
2022-10-22T17:11:36.279Z,84.30
2022-10-22T17:14:05.226Z,83.89
2022-10-22T17:16:32.314Z,84.03
2022-10-22T17:18:59.248Z,84.21
2022-10-22T17:21:26.166Z,83.69
2022-10-22T17:23:57.769Z,83.82
2022-10-22T17:26:26.969Z,84.15
2022-10-22T17:28:54.640Z,84.34
2022-10-22T17:31:23.029Z,83.84
2022-10-22T17:33:51.832Z,84.46
2022-10-22T17:36:20.184Z,84.79
2022-10-22T17:38:56.123Z,84.06
2022-10-22T17:41:26.895Z,84.66
2022-10-22T17:43:55.439Z,84.20
2022-10-22T17:46:25.458Z,84.74
2022-10-22T17:48:57.780Z,84.32
2022-10-22T17:51:26.683Z,85.21
2022-10-22T17:53:53.883Z,85.04
2022-10-22T17:56:30.494Z,84.14
2022-10-22T17:58:58.821Z,84.53
2022-10-22T18:01:29.526Z,84.56
2022-10-22T18:04:00.756Z,84.84
2022-10-22T18:06:28.736Z,84.05
2022-10-22T18:08:56.121Z,84.59
2022-10-22T18:11:27.275Z,84.13
2022-10-22T18:13:56.587Z,83.99
2022-10-22T18:16:25.042Z,84.07
2022-10-22T18:18:55.823Z,84.03
2022-10-22T18:21:24.603Z,84.26
2022-10-22T18:23:51.578Z,84.09
2022-10-22T18:26:21.454Z,84.36
2022-10-22T18:28:51.454Z,84.07
2022-10-22T18:31:20.751Z,83.90
2022-10-22T18:33:48.320Z,84.27
2022-10-22T18:36:20.783Z,83.75
2022-10-22T18:38:59.170Z,84.13
2022-10-22T18:41:27.797Z,84.27
2022-10-22T18:43:57.107Z,84.08
2022-10-22T18:46:25.027Z,84.29
2022-10-22T18:48:58.991Z,83.86
2022-10-22T18:51:30.693Z,83.80
2022-10-22T18:54:05.293Z,84.04
2022-10-22T18:56:44.984Z,83.63
2022-10-22T18:59:23.240Z,83.39
2022-10-22T19:01:53.074Z,83.95
2022-10-22T19:04:20.145Z,83.95
2022-10-22T19:06:47.289Z,83.65
2022-10-22T19:09:15.914Z,83.92
2022-10-22T19:11:45.073Z,82.89
2022-10-22T19:14:14.211Z,84.35
2022-10-22T19:16:41.054Z,83.60
2022-10-22T19:19:08.544Z,83.64
2022-10-22T19:21:36.656Z,83.71
2022-10-22T19:24:04.144Z,83.32
2022-10-22T19:26:31.553Z,83.53
2022-10-22T19:28:59.609Z,83.64
2022-10-22T19:31:29.950Z,83.70
2022-10-22T19:33:57.839Z,83.58
2022-10-22T19:36:27.627Z,83.71
2022-10-22T19:38:55.394Z,83.28
2022-10-22T19:41:24.088Z,84.13
2022-10-22T19:43:53.448Z,84.05
2022-10-22T19:46:21.875Z,83.11
2022-10-22T19:48:49.887Z,83.70
2022-10-22T19:51:20.050Z,83.50
2022-10-22T19:53:47.426Z,83.37
2022-10-22T19:56:18.393Z,83.43
2022-10-22T19:58:45.440Z,83.80
2022-10-22T20:01:14.315Z,83.30
2022-10-22T20:03:42.101Z,83.25
2022-10-22T20:06:10.701Z,83.48
2022-10-22T20:08:38.862Z,83.01
2022-10-22T20:11:09.002Z,84.00
2022-10-22T20:13:35.988Z,83.55
2022-10-22T20:16:04.402Z,83.67
2022-10-22T20:18:34.250Z,83.88
2022-10-22T20:21:08.358Z,83.84
2022-10-22T20:23:35.574Z,83.77
2022-10-22T20:26:02.562Z,83.70
2022-10-22T20:28:29.465Z,83.26
2022-10-22T20:30:56.510Z,83.22
2022-10-22T20:33:23.895Z,83.71
2022-10-22T20:36:04.704Z,83.32
2022-10-22T20:38:31.663Z,83.53
2022-10-22T20:41:03.781Z,83.38
2022-10-22T20:43:31.418Z,83.39
2022-10-22T20:45:58.940Z,84.32
2022-10-22T20:48:29.623Z,83.35
2022-10-22T20:50:56.971Z,83.56
2022-10-22T20:53:24.152Z,83.43
2022-10-22T20:55:53.420Z,83.60
2022-10-22T20:58:23.387Z,83.36
2022-10-22T21:00:53.413Z,83.62
2022-10-22T21:03:20.383Z,83.39
2022-10-22T21:05:47.508Z,83.41
2022-10-22T21:08:17.661Z,83.42
2022-10-22T21:10:49.569Z,83.56
2022-10-22T21:13:19.242Z,84.11
2022-10-22T21:15:46.360Z,83.74
2022-10-22T21:18:13.414Z,84.39
2022-10-22T21:20:40.725Z,83.82
2022-10-22T21:23:08.877Z,83.96
2022-10-22T21:25:39.481Z,83.16
2022-10-22T21:28:08.913Z,83.06
2022-10-22T21:30:35.897Z,82.73
2022-10-22T21:33:02.817Z,83.11
2022-10-22T21:35:29.727Z,83.03
2022-10-22T21:37:56.714Z,83.01
2022-10-22T21:40:23.576Z,83.03
2022-10-22T21:42:51.164Z,82.94
2022-10-22T21:45:22.035Z,82.88
2022-10-22T21:47:49.497Z,82.33
2022-10-22T21:50:16.390Z,83.17
2022-10-22T21:52:43.289Z,83.06
2022-10-22T21:55:10.412Z,82.63
2022-10-22T21:57:37.381Z,83.15
2022-10-22T22:00:07.168Z,83.71
2022-10-22T22:02:34.267Z,83.24
2022-10-22T22:05:01.262Z,83.54
2022-10-22T22:07:28.521Z,83.07
2022-10-22T22:09:55.479Z,83.12
2022-10-22T22:12:22.421Z,83.45
2022-10-22T22:14:49.449Z,83.29
2022-10-22T22:17:16.743Z,83.22
2022-10-22T22:19:43.643Z,83.38
2022-10-22T22:22:10.616Z,82.96
2022-10-22T22:24:39.894Z,83.34
2022-10-22T22:27:06.910Z,83.58
2022-10-22T22:29:34.540Z,83.54
2022-10-22T22:32:01.920Z,83.83
2022-10-22T22:34:28.800Z,83.50
2022-10-22T22:36:55.679Z,83.35
2022-10-22T22:39:23.601Z,83.11
2022-10-22T22:41:50.960Z,82.75
2022-10-22T22:44:18.127Z,83.45
2022-10-22T22:47:03.257Z,83.07
2022-10-22T22:49:30.238Z,83.38
2022-10-22T22:51:57.158Z,83.08
2022-10-22T22:54:24.003Z,82.79
2022-10-22T22:56:51.073Z,83.73
2022-10-22T22:59:17.951Z,83.18
2022-10-22T23:01:49.021Z,82.92
2022-10-22T23:04:22.729Z,83.02
2022-10-22T23:06:50.096Z,82.93
2022-10-22T23:11:51.040Z,82.44
2022-10-22T23:14:19.347Z,82.84
2022-10-22T23:16:49.621Z,82.61
2022-10-22T23:19:20.434Z,82.82
2022-10-22T23:21:51.000Z,82.66
2022-10-22T23:24:23.897Z,82.65
2022-10-22T23:26:52.751Z,82.70
2022-10-22T23:29:21.632Z,81.90
2022-10-22T23:31:49.913Z,81.76
2022-10-22T23:36:52.384Z,82.10
2022-10-22T23:39:21.888Z,82.21
2022-10-22T23:41:48.883Z,82.02
2022-10-22T23:44:15.992Z,82.03
2022-10-22T23:46:43.386Z,81.98
2022-10-22T23:49:11.748Z,81.90
2022-10-22T23:51:40.119Z,81.95
2022-10-22T23:54:11.085Z,81.79
2022-10-22T23:56:38.308Z,81.00
2022-10-22T23:59:05.812Z,81.41
